Roy, New Mexico
Current Conditions -  °F | °C
As of 10:53 PM on Sunday 19 Oct 2014 (Local Time) from KLVS Reporting Station
Clear Clear  
Wind Chill: 43°   Ceiling: Unl
Heat Index: 47°   Visibility: 10mi
Dew Point: 41°   Wind: 9mph
Humidity: 80%   Direction: 340°NNW
Pressure: 30.22"   Gusts: NA
Location:  35.94°N, 104.2°W
Report Text: KLVS 200453Z AUTO 34008KT 10SM CLR 08/05 A3022 RMK AO2 SLP161 T00830050
Loading
Personal Weather Stations






























Interactive Weather Map
Tropical Storm Tracking
New forecast layout! Learn more

10-Day Weather Forecast

Advertisements
Track Severe Weather on mobile